• Join FlightAware (Why Join?)
  • Login
  • US Flag 
10:57AM EST


 

Airport Tracker/Info


-or-


 

Live Flight TrackerFlight Track Log ✈ UAL33 ✈ 15-Jul-2014 ✈ RJAA / NRT - KLAX

Flight Track Log - Related Links

Times and Time Zones

All times are in EDT time to prevent confusion due to time zone crossing. See the UAL33 flight status page for this flight to view local times or setup timezone preferences in your user account.

Time Position Orientation Groundspeed Altitude Reporting Facility
EDT Latitude Longitude Course Direction KTS MPH feet Rate Location/Type
04:48AM 35.7121 140.4129 150° Southeast 189 217 2,100  Level FlightAware ADS-B (EGKA / ESH)
04:48AM 35.6932 140.4267 148° Southeast 187 215 2,900 1,980 Climbing FlightAware ADS-B
04:49AM 35.6748 140.4400 150° Southeast 205 236 3,600 1,500 Climbing FlightAware ADS-B
04:49AM 35.6646 140.4473 150° Southeast 224 258 3,900 1,140 Climbing FlightAware ADS-B (EGKA / ESH)
04:49AM 35.6366 140.4675 149° Southeast 245 282 4,400 1,440 Climbing FlightAware ADS-B
04:50AM 35.6163 140.4821 149° Southeast 269 310 5,100 1,920 Climbing FlightAware ADS-B (EGKA / ESH)
04:50AM 35.5971 140.4960 149° Southeast 276 318 5,700 2,520 Climbing FlightAware ADS-B (EGKA / ESH)
04:50AM 35.5696 140.5161 148° Southeast 284 327 6,700 2,280 Climbing FlightAware ADS-B
04:51AM 35.5526 140.5397 114° Southeast 287 330 7,400 1,920 Climbing FlightAware ADS-B (EGKA / ESH)
04:51AM 35.5485 140.5592 97° East 291 335 7,900 1,920 Climbing FlightAware ADS-B (EGKA / ESH)
04:51AM 35.5469 140.5747 97° East 298 343 8,400 1,440 Climbing FlightAware ADS-B (EGKA / ESH)
04:52AM 35.5406 140.6379 97° East 307 353 9,000 1,200 Climbing FlightAware ADS-B (EGKA / ESH)
04:52AM 35.5323 140.7190 97° East 315 362 9,900 1,080 Climbing FlightAware ADS-B (EGKA / ESH)
04:53AM 35.5252 140.7857 96° East 348 400 10,500 1,020 Climbing FlightAware ADS-B
04:54AM 35.5165 140.8677 97° East 388 447 11,200 1,320 Climbing FlightAware ADS-B (EGKA / ESH)
04:54AM 35.5078 140.9482 97° East 417 480 12,400 1,920 Climbing FlightAware ADS-B (EGKA / ESH)
04:55AM 35.5014 141.0077 97° East 418 481 13,100 2,460 Climbing FlightAware ADS-B
04:55AM 35.4993 141.0559 88° East 425 489 13,800 1,740 Climbing FlightAware ADS-B
04:56AM 35.5061 141.1359 83° East 441 507 14,900 1,800 Climbing FlightAware ADS-B (EGKA / ESH)
04:56AM 35.5134 141.2085 83° East 445 512 16,000 1,980 Climbing FlightAware ADS-B (EGKA / ESH)
04:57AM 35.5254 141.3302 83° East 454 522 17,400 1,920 Climbing FlightAware ADS-B (EGKA / ESH)
04:57AM 35.5331 141.4109 84° East 461 531 18,400 1,740 Climbing FlightAware ADS-B (EGKA / ESH)
04:58AM 35.5397 141.4842 80° East 471 542 19,600 1,680 Climbing FlightAware ADS-B (EGKA / ESH)
04:59AM 35.5833 141.6565 62° Northeast 479 551 21,000 1,620 Climbing FlightAware ADS-B
05:00AM 35.6232 141.7494 63° Northeast 486 559 22,000 1,500 Climbing FlightAware ADS-B (EGKA / ESH)
05:00AM 35.6676 141.8538 62° Northeast 493 567 23,100 1,440 Climbing FlightAware ADS-B
05:01AM 35.7095 141.9523 63° Northeast 498 573 23,900 1,200 Climbing FlightAware ADS-B
05:02AM 35.7983 142.1625 63° Northeast 512 589 25,600 1,260 Climbing FlightAware ADS-B
05:03AM 35.8307 142.2399 64° Northeast 515 593 26,300 1,140 Climbing FlightAware ADS-B
05:04AM 35.8735 142.3414 63° Northeast 524 603 27,500 1,140 Climbing FlightAware ADS-B (EGKA / ESH)
05:05AM 35.9853 142.6096 63° Northeast 534 615 29,000 1,020 Climbing FlightAware ADS-B
05:07AM 36.0940 142.8720 64° Northeast 542 624 30,500 60 Climbing FlightAware ADS-B
05:09AM 36.2201 143.1164 57° Northeast  Level Estimated
05:10AM 36.2940 143.2606 58° Northeast  Level Estimated
05:11AM 36.3678 143.4050 58° Northeast  Level Estimated
05:12AM 36.4414 143.5497 58° Northeast  Level Estimated
05:13AM 36.5148 143.6947 58° Northeast  Level Estimated
05:14AM 36.5880 143.8400 58° Northeast  Level Estimated
05:15AM 36.6611 143.9855 58° Northeast  Level Estimated
05:16AM 36.7339 144.1313 58° Northeast  Level Estimated
05:17AM 36.8066 144.2774 58° Northeast  Level Estimated
05:18AM 36.8792 144.4237 58° Northeast  Level Estimated
05:19AM 36.9515 144.5704 58° Northeast  Level Estimated
05:20AM 37.0237 144.7173 58° Northeast  Level Estimated
05:21AM 37.0956 144.8645 58° Northeast  Level Estimated
05:22AM 37.1674 145.0119 59° Northeast  Level Estimated
05:23AM 37.2390 145.1597 59° Northeast  Level Estimated
05:24AM 37.3105 145.3077 59° Northeast  Level Estimated
05:25AM 37.3817 145.4561 59° Northeast  Level Estimated
05:26AM 37.4528 145.6046 59° Northeast  Level Estimated
05:27AM 37.5236 145.7535 59° Northeast  Level Estimated
05:28AM 37.5943 145.9027 59° Northeast  Level Estimated
05:29AM 37.6648 146.0521 59° Northeast  Level Estimated
05:30AM 37.7351 146.2019 59° Northeast  Level Estimated
05:31AM 37.8052 146.3519 59° Northeast  Level Estimated
05:32AM 37.8752 146.5022 59° Northeast  Level Estimated
05:33AM 37.9449 146.6528 60° Northeast  Level Estimated
05:34AM 38.0145 146.8036 60° Northeast  Level Estimated
05:35AM 38.0838 146.9548 60° Northeast  Level Estimated
05:36AM 38.1530 147.1062 60° Northeast  Level Estimated
05:37AM 38.2219 147.2579 60° Northeast  Level Estimated
05:38AM 38.2907 147.4100 60° Northeast  Level Estimated
05:39AM 38.3593 147.5623 60° Northeast  Level Estimated
05:40AM 38.4276 147.7149 60° Northeast  Level Estimated
05:41AM 38.4958 147.8678 60° Northeast  Level Estimated
05:42AM 38.5638 148.0209 60° Northeast  Level Estimated
05:43AM 38.6316 148.1744 60° Northeast  Level Estimated
05:44AM 38.6991 148.3281 61° Northeast  Level Estimated
05:45AM 38.7665 148.4822 61° Northeast  Level Estimated
05:46AM 38.8337 148.6365 61° Northeast  Level Estimated
05:47AM 38.9006 148.7911 61° Northeast  Level Estimated
05:48AM 38.9674 148.9460 61° Northeast  Level Estimated
05:49AM 39.0340 149.1013 61° Northeast  Level Estimated
05:50AM 39.1003 149.2567 61° Northeast  Level Estimated
05:51AM 39.1665 149.4125 61° Northeast  Level Estimated
05:52AM 39.2324 149.5686 61° Northeast  Level Estimated
05:53AM 39.2981 149.7250 61° Northeast  Level Estimated
05:54AM 39.3636 149.8817 62° Northeast  Level Estimated
05:55AM 39.4290 150.0386 62° Northeast  Level Estimated
05:56AM 39.4940 150.1959 62° Northeast  Level Estimated
05:57AM 39.5589 150.3534 62° Northeast  Level Estimated
05:58AM 39.6236 150.5113 62° Northeast  Level Estimated
05:59AM 39.6884 150.6703 62° Northeast  Level Estimated
06:00AM 39.7530 150.8295 62° Northeast  Level Estimated
06:01AM 39.8173 150.9891 62° Northeast  Level Estimated
06:02AM 39.8815 151.1490 62° Northeast  Level Estimated
06:03AM 39.9454 151.3091 62° Northeast  Level Estimated
06:04AM 40.0091 151.4696 63° Northeast  Level Estimated
06:05AM 40.0704 151.6250 63° Northeast  Level Estimated
06:06AM 40.1316 151.7806 63° Northeast  Level Estimated
06:07AM 40.1925 151.9366 63° Northeast  Level Estimated
06:08AM 40.2533 152.0928 63° Northeast  Level Estimated
06:09AM 40.3138 152.2493 63° Northeast  Level Estimated
06:10AM 40.3741 152.4061 63° Northeast  Level Estimated
06:11AM 40.4342 152.5632 63° Northeast  Level Estimated
06:12AM 40.4941 152.7206 63° Northeast  Level Estimated
06:13AM 40.5538 152.8782 63° Northeast  Level Estimated
06:14AM 40.6132 153.0361 64° Northeast  Level Estimated
06:15AM 40.6725 153.1943 64° Northeast  Level Estimated
06:16AM 40.7315 153.3528 64° Northeast  Level Estimated
06:17AM 40.7903 153.5115 64° Northeast  Level Estimated
06:18AM 40.8489 153.6706 64° Northeast  Level Estimated
06:19AM 40.9073 153.8299 64° Northeast  Level Estimated
06:20AM 40.9655 153.9895 64° Northeast  Level Estimated
06:21AM 41.0234 154.1494 64° Northeast  Level Estimated
06:22AM 41.0811 154.3095 64° Northeast  Level Estimated
06:23AM 41.1386 154.4700 65° Northeast  Level Estimated
06:24AM 41.1959 154.6307 65° Northeast  Level Estimated
06:25AM 41.2529 154.7917 65° Northeast  Level Estimated
06:26AM 41.3097 154.9530 65° Northeast  Level Estimated
06:27AM 41.3663 155.1145 65° Northeast  Level Estimated
06:28AM 41.4227 155.2764 65° Northeast  Level Estimated
06:29AM 41.4788 155.4385 65° Northeast  Level Estimated
06:30AM 41.5347 155.6009 65° Northeast  Level Estimated
06:31AM 41.5904 155.7636 65° Northeast  Level Estimated
06:32AM 41.6459 155.9266 65° Northeast  Level Estimated
06:33AM 41.7011 156.0898 66° East  Level Estimated
06:34AM 41.7561 156.2534 66° East  Level Estimated
06:35AM 41.8108 156.4172 66° East  Level Estimated
06:36AM 41.8654 156.5813 66° East  Level Estimated
06:37AM 41.9197 156.7456 66° East  Level Estimated
06:38AM 41.9737 156.9103 66° East  Level Estimated
06:39AM 42.0275 157.0752 66° East  Level Estimated
06:40AM 42.0811 157.2404 66° East  Level Estimated
06:41AM 42.1345 157.4059 66° East  Level Estimated
06:42AM 42.1876 157.5717 67° East  Level Estimated
06:43AM 42.2405 157.7377 67° East  Level Estimated
06:44AM 42.2931 157.9040 67° East  Level Estimated
06:45AM 42.3455 158.0706 67° East  Level Estimated
06:46AM 42.3976 158.2375 67° East  Level Estimated
06:47AM 42.4495 158.4046 67° East  Level Estimated
06:48AM 42.5012 158.5721 67° East  Level Estimated
06:49AM 42.5526 158.7398 67° East  Level Estimated
06:50AM 42.6038 158.9077 67° East  Level Estimated
06:51AM 42.6547 159.0760 68° East  Level Estimated
06:52AM 42.7054 159.2445 68° East  Level Estimated
06:53AM 42.7558 159.4133 68° East  Level Estimated
06:54AM 42.8060 159.5824 68° East  Level Estimated
06:55AM 42.8560 159.7518 68° East  Level Estimated
06:56AM 42.9056 159.9214 68° East  Level Estimated
06:57AM 42.9551 160.0913 68° East  Level Estimated
06:58AM 43.0043 160.2615 68° East  Level Estimated
06:59AM 43.0532 160.4319 69° East  Level Estimated
07:00AM 43.1019 160.6026 69° East  Level Estimated
07:01AM 43.1503 160.7736 69° East  Level Estimated
07:02AM 43.1985 160.9449 69° East  Level Estimated
07:03AM 43.2464 161.1164 69° East  Level Estimated
07:03AM 41.1500 165.1333 75° East 540 621 39,000  Level Oakland Oceanic (ODAPS)
07:17AM 41.6500 167.8000 77° East 527 606 39,000  Level Oakland Oceanic (ODAPS)
07:28AM 42.0000 170.0000 79° East 517 595 39,000  Level Oakland Oceanic (ODAPS)
07:31AM 42.0667 170.4500 79° East 517 595 39,000 60 Level Oakland Oceanic (ODAPS)
07:45AM 42.4000 173.0833 81° East 503 579 40,000  Climbing Oakland Oceanic (ODAPS)
07:58AM 42.6667 175.6333 83° East 488 562 40,000  Level Oakland Oceanic (ODAPS)
08:12AM 42.8833 178.2167 84° East 496 571 40,000  Level Oakland Oceanic (ODAPS)
08:22AM 43.0000 180.0000 87° East 521 600 40,000  Level Oakland Oceanic (ODAPS)
08:26AM 43.0333 -179.1833 87° East 535 616 40,000  Level Oakland Oceanic (ODAPS)
08:40AM 43.1000 -176.4833 89° East 543 625 40,000  Level Oakland Oceanic (ODAPS)
08:54AM 43.1000 -173.6167 91° East 560 644 40,000  Level Oakland Oceanic (ODAPS)
09:08AM 43.0333 -170.6333 94° East 573 659 40,000  Level Oakland Oceanic (ODAPS)
09:11AM 43.0000 -170.0000 87° East 565 650 40,000  Level Oakland Oceanic (ODAPS)
09:22AM 43.0833 -167.6667 88° East 556 640 40,000  Level Oakland Oceanic (ODAPS)
09:35AM 43.1167 -164.7833 90° East 552 635 40,000  Level Oakland Oceanic (ODAPS)
09:49AM 43.0667 -161.8833 92° East 551 634 40,000  Level Oakland Oceanic (ODAPS)
09:59AM 43.0000 -160.0000 87° East 542 624 40,000  Level Oakland Oceanic (ODAPS)
10:03AM 43.0333 -159.0167 87° East 536 617 40,000  Level Oakland Oceanic (ODAPS)
10:17AM 43.1000 -156.1833 89° East 529 609 40,000  Level Oakland Oceanic (ODAPS)
10:31AM 43.1000 -153.4167 91° East 525 604 40,000  Level Oakland Oceanic (ODAPS)
10:45AM 43.0333 -150.6667 94° East 521 600 40,000  Level Oakland Oceanic (ODAPS)
10:48AM 43.0000 -150.0000 87° East 510 587 40,000  Level Oakland Oceanic (ODAPS)
10:59AM 43.0667 -147.9500 88° East 506 582 40,000  Level Oakland Oceanic (ODAPS)
11:13AM 43.1167 -145.2667 90° East 500 575 40,000  Level Oakland Oceanic (ODAPS)
11:26AM 43.0833 -142.6667 92° East 491 565 41,000  Climbing Oakland Oceanic (ODAPS)
11:40AM 43.0000 -140.1167 90° East 476 548 41,000  Level Oakland Oceanic (ODAPS)
11:41AM 43.0000 -140.0000 102° East 491 565 41,000  Level FlightAware Transoceanic
11:41AM 43.0000 -140.0000 102° East 491 565 41,000  Level Oakland Oceanic (ODAPS)
11:54AM 42.6167 -137.6333 103° East 486 559 41,000  Level Oakland Oceanic (ODAPS)
12:08PM 42.1667 -135.2167 105° East 493 567 41,000  Level Oakland Oceanic (ODAPS)
12:22PM 41.6667 -132.8000 107° East 490 564 41,000  Level Oakland Oceanic (ODAPS)
12:28PM 41.4000 -131.6500 107° East 492 566 41,000  Level Oakland Oceanic (ODAPS)
12:36PM 41.1000 -130.3833 109° East 487 560 41,000  Level Oakland Oceanic (ODAPS)
12:38PM 41.0000 -130.0000 106° East 493 567 41,000  Level Oakland Oceanic (ODAPS)
12:50PM 40.5333 -127.9833 107° East 491 565 41,000 -60 Level Oakland Oceanic (ODAPS)
12:53PM 40.4186 -127.4800 113° Southeast 494 568 40,900  Descending Oakland Center
12:54PM 40.3816 -127.3302 108° East 493 567 41,000 60 Climbing FlightAware Transoceanic
12:54PM 40.3769 -127.3100 108° East 493 567 41,000  Level Oakland Center
12:55PM 40.3409 -127.1650 108° East 493 567 41,000  Level FlightAware Transoceanic
12:55PM 40.3342 -127.1408 108° East 493 567 41,000  Level Oakland Center
12:56PM 40.3000 -127.0000 112° Southeast 491 565 41,000  Level FlightAware Transoceanic
12:56PM 40.2911 -126.9714 108° East 493 567 41,000  Level Oakland Center
12:57PM 40.2482 -126.8349 112° Southeast 491 565 41,000 -120 Level FlightAware Transoceanic
12:57PM 40.2369 -126.8097 114° Southeast 488 562 40,900  Descending Oakland Center
12:58PM 40.1961 -126.6700 113° Southeast 491 565 41,000 60 Climbing FlightAware Transoceanic
12:58PM 40.1542 -126.6692 128° Southeast 487 560 41,000  Level Oakland Center
01:03PM 39.6500 -125.8478 129° Southeast 481 554 41,000  Level FlightAware ADS-B (KAUN)
01:05PM 39.5315 -125.6577 129° Southeast 479 551 41,000  Level FlightAware ADS-B (KAUN)
01:06PM 39.4762 -125.5693 129° Southeast 479 551 41,000  Level FlightAware ADS-B (KAUN)
01:06PM 39.4354 -125.5044 129° Southeast 480 552 41,000  Level FlightAware ADS-B (KAUN)
01:07PM 39.3920 -125.4354 129° Southeast 481 554 41,000  Level FlightAware ADS-B (KAUN)
01:07PM 39.3367 -125.3477 129° Southeast 481 554 41,000  Level FlightAware ADS-B (KAUN)
01:08PM 39.2808 -125.2593 129° Southeast 481 554 41,000  Level FlightAware ADS-B (KAUN)
01:09PM 39.1694 -125.0837 129° Southeast 479 551 41,000  Level FlightAware ADS-B (KAUN)
01:10PM 39.1101 -124.9909 129° Southeast 479 551 41,000  Level FlightAware ADS-B (KAUN)
01:11PM 39.0047 -124.8261 129° Southeast 480 552 41,000  Level FlightAware ADS-B (KAUN)
01:12PM 38.9420 -124.7286 129° Southeast 480 552 41,000  Level FlightAware ADS-B (KAUN)
01:13PM 38.8878 -124.6448 130° Southeast 482 555 41,000  Level FlightAware ADS-B (KAUN)
01:13PM 38.8351 -124.5631 130° Southeast 482 555 41,000  Level FlightAware ADS-B (KAUN)
01:14PM 38.7947 -124.5008 130° Southeast 481 554 41,000  Level FlightAware ADS-B (KAUN)
01:15PM 38.7171 -124.3812 130° Southeast 479 551 41,000  Level FlightAware ADS-B (KAUN)
01:15PM 38.6663 -124.3033 130° Southeast 480 552 41,000  Level FlightAware ADS-B (KAUN)
01:16PM 38.6052 -124.2099 130° Southeast 480 552 41,000  Level FlightAware ADS-B (KAUN)
01:17PM 38.5478 -124.1222 130° Southeast 479 551 41,000  Level FlightAware ADS-B (KAUN)
01:17PM 38.4940 -124.0405 130° Southeast 480 552 41,000  Level FlightAware ADS-B (KAUN)
01:18PM 38.4423 -123.9620 130° Southeast 481 554 41,000  Level FlightAware ADS-B (KAUN)
01:19PM 38.3936 -123.8883 130° Southeast 481 554 41,000  Level FlightAware ADS-B (KAUN)
01:19PM 38.3160 -123.7710 130° Southeast 483 556 41,000  Level FlightAware ADS-B (KAUN)
01:20PM 38.2584 -123.6843 130° Southeast 484 557 41,000  Level FlightAware ADS-B (KAUN)
01:21PM 38.1801 -123.5670 130° Southeast 483 556 41,000  Level FlightAware ADS-B (KAUN)
01:22PM 38.1191 -123.4757 130° Southeast 484 557 41,000  Level FlightAware ADS-B (KAUN)
01:22PM 38.0766 -123.4123 130° Southeast 483 556 41,000  Level FlightAware ADS-B
01:23PM 38.0330 -123.3473 130° Southeast 482 555 41,000  Level FlightAware ADS-B (KHWD)
01:23PM 37.9773 -123.2645 131° Southeast 482 555 41,000  Level FlightAware ADS-B
01:24PM 37.9238 -123.1853 131° Southeast 482 555 41,000  Level FlightAware ADS-B
01:24PM 37.8669 -123.1014 131° Southeast 477 549 41,000  Level FlightAware ADS-B
01:25PM 37.7962 -122.9971 131° Southeast 477 549 41,000  Level FlightAware ADS-B (KAUN)
01:26PM 37.7101 -122.8707 131° Southeast 475 547 41,000  Level FlightAware ADS-B (KAUN)
01:27PM 37.6433 -122.7728 131° Southeast 478 550 41,000  Level FlightAware ADS-B (KAUN)
01:28PM 37.5812 -122.6824 131° Southeast 478 550 41,000  Level FlightAware ADS-B
01:28PM 37.5347 -122.6147 131° Southeast 478 550 41,000  Level FlightAware ADS-B (KHWD)
01:29PM 37.4946 -122.5564 131° Southeast 477 549 41,000  Level FlightAware ADS-B
01:29PM 37.4891 -122.5480 131° Southeast 477 549 41,000  Level FlightAware ADS-B
01:29PM 37.4365 -122.4720 131° Southeast 477 549 41,000  Level FlightAware ADS-B
01:29PM 37.4365 -122.4721 131° Southeast 477 549 41,000  Level FlightAware ADS-B
01:30PM 37.3919 -122.4080 131° Southeast 478 550 41,000  Level FlightAware ADS-B
01:30PM 37.3905 -122.4055 131° Southeast 479 551 41,000  Level FlightAware ADS-B (KHWD)
01:30PM 37.3483 -122.3447 131° Southeast 480 552 41,000  Level FlightAware ADS-B
01:31PM 37.3230 -122.3080 131° Southeast 479 551 41,000  Level FlightAware ADS-B
01:31PM 37.3031 -122.2797 131° Southeast 480 552 41,000  Level FlightAware ADS-B (KHWD)
01:31PM 37.2792 -122.2450 131° Southeast 480 552 41,000  Level FlightAware ADS-B
01:32PM 37.2439 -122.1946 131° Southeast 480 552 41,000  Level FlightAware ADS-B (KHWD)
01:32PM 37.2349 -122.1820 131° Southeast 481 554 41,000  Level FlightAware ADS-B
01:32PM 37.2025 -122.1351 131° Southeast 479 551 41,000  Level FlightAware ADS-B
01:32PM 37.1879 -122.1140 131° Southeast 479 551 41,000  Level FlightAware ADS-B
01:33PM 37.1434 -122.0510 131° Southeast 478 550 41,000  Level FlightAware ADS-B
01:33PM 37.1408 -122.0469 131° Southeast 477 549 41,000  Level FlightAware ADS-B
01:33PM 37.0984 -121.9860 131° Southeast 476 548 41,000  Level FlightAware ADS-B
01:33PM 37.1013 -121.9906 131° Southeast 476 548 41,000  Level FlightAware ADS-B
01:34PM 37.0551 -121.9250 131° Southeast 473 544 41,000  Level FlightAware ADS-B
01:34PM 37.0741 -121.9517 131° Southeast 473 544 41,000  Level FlightAware ADS-B (KHWD)
01:34PM 37.0054 -121.8540 131° Southeast 473 544 41,000  Level FlightAware ADS-B
01:35PM 36.9676 -121.8003 131° Southeast 473 544 41,000  Level FlightAware ADS-B
01:35PM 36.9433 -121.7660 131° Southeast 473 544 41,000  Level FlightAware ADS-B
01:35PM 36.9156 -121.7266 131° Southeast 474 545 41,000  Level FlightAware ADS-B
01:36PM 36.8982 -121.7020 131° Southeast 474 545 41,000  Level FlightAware ADS-B
01:36PM 36.8535 -121.6390 131° Southeast 473 544 41,000  Level FlightAware ADS-B
01:37PM 36.7953 -121.5570 131° Southeast 473 544 41,000  Level FlightAware ADS-B
01:37PM 36.7935 -121.5544 131° Southeast 473 544 41,000  Level FlightAware ADS-B
01:37PM 36.7512 -121.4950 131° Southeast 473 544 41,000  Level FlightAware ADS-B
01:38PM 36.7062 -121.4320 131° Southeast 473 544 41,000  Level FlightAware ADS-B
01:38PM 36.6616 -121.3690 131° Southeast 473 544 41,000  Level FlightAware ADS-B
01:39PM 36.6145 -121.3030 131° Southeast 473 544 41,000  Level FlightAware ADS-B
01:40PM 36.5320 -121.1880 132° Southeast 473 544 41,000  Level FlightAware ADS-B
01:41PM 36.4518 -121.0768 132° Southeast 473 544 41,000 -300 Level FlightAware ADS-B
01:42PM 36.3458 -120.9300 132° Southeast 475 547 40,400 -900 Descending FlightAware ADS-B
01:43PM 36.2311 -120.7721 132° Southeast 479 551 39,000 -1,500 Descending FlightAware ADS-B
01:45PM 36.1010 -120.5940 132° Southeast 456 525 36,700 -1,800 Descending FlightAware ADS-B
01:45PM 36.0636 -120.5458 132° Southeast 469 540 35,400 -1,620 Descending Los Angeles Center
01:46PM 36.0131 -120.4767 132° Southeast 460 529 34,900 -240 Descending Oakland Center
01:47PM 35.9308 -120.3658 132° Southeast 442 509 35,000  Climbing Oakland Center
01:48PM 35.8503 -120.2533 131° Southeast 438 504 35,000  Level Oakland Center
01:49PM 35.7667 -120.1417 133° Southeast 439 505 35,000  Level Oakland Center
01:50PM 35.6842 -120.0300 132° Southeast 442 509 35,000  Level Oakland Center
01:51PM 35.5917 -119.9306 139° Southeast 443 510 35,000 -780 Level Oakland Center
01:57PM 35.0141 -119.4351 144° Southeast 449 517 30,200 -1,080 Descending FlightAware ADS-B
01:57PM 34.9312 -119.3646 145° Southeast 452 520 28,400 -2,520 Descending FlightAware ADS-B
01:58PM 34.8768 -119.3185 145° Southeast 454 522 26,900 -2,580 Descending FlightAware ADS-B
01:59PM 34.7933 -119.2477 144° Southeast 455 524 25,000 -2,340 Descending FlightAware ADS-B
01:59PM 34.7346 -119.1981 145° Southeast 453 521 23,700 -2,340 Descending FlightAware ADS-B
02:00PM 34.6557 -119.1317 145° Southeast 443 510 21,900 -2,580 Descending FlightAware ADS-B
02:01PM 34.5927 -119.0787 145° Southeast 419 482 20,100 -2,340 Descending FlightAware ADS-B
02:01PM 34.5297 -119.0260 145° Southeast 367 422 18,800 -1,860 Descending FlightAware ADS-B
02:02PM 34.4757 -118.9808 145° Southeast 354 407 17,600 -1,740 Descending FlightAware ADS-B
02:03PM 34.4218 -118.9356 145° Southeast 347 399 16,500 -1,620 Descending FlightAware ADS-B
02:03PM 34.3701 -118.8934 149° Southeast 345 397 15,500 -1,740 Descending FlightAware ADS-B
02:04PM 34.4018 -118.9188 145° Southeast 346 398 14,900 -1,680 Descending FlightAware ADS-B (KMOD)
02:04PM 34.3119 -118.8648 163° South 342 394 14,400 -1,500 Descending FlightAware ADS-B
02:05PM 34.2524 -118.8429 163° South 338 389 13,400 -1,500 Descending FlightAware ADS-B
02:05PM 34.1916 -118.8206 162° South 330 380 12,400 -1,560 Descending FlightAware ADS-B
02:06PM 34.1334 -118.7993 163° South 323 372 11,300 -1,680 Descending FlightAware ADS-B
02:07PM 34.0790 -118.7793 163° South 320 368 10,200 -1,560 Descending FlightAware ADS-B
02:07PM 34.0565 -118.7673 147° Southeast 316 364 9,900 -840 Descending FlightAware ADS-B
02:07PM 34.0431 -118.7496 123° Southeast 317 365 9,800 -360 Descending FlightAware ADS-B (OPMT / MUX)
02:07PM 34.0396 -118.7418 115° Southeast 314 361 9,800 600 Level FlightAware ADS-B (OPMT / MUX)
02:07PM 34.0373 -118.7343 107° East 309 356 9,900 240 Climbing FlightAware ADS-B (OPMT / MUX)
02:08PM 34.0330 -118.6997 96° East 293 337 9,900  Level FlightAware ADS-B
02:08PM 34.0297 -118.6655 96° East 286 329 9,900 -180 Level FlightAware ADS-B
02:08PM 34.0268 -118.6340 96° East 287 330 9,800 -780 Descending FlightAware ADS-B
02:09PM 34.0239 -118.6018 96° East 287 330 9,400 -1,140 Descending FlightAware ADS-B
02:09PM 34.0190 -118.5499 96° East 293 337 8,800 -1,200 Descending FlightAware ADS-B (OPMT / MUX)
02:10PM 34.0152 -118.5100 96° East 264 304 8,200 -960 Descending FlightAware ADS-B (KMOD)
02:10PM 34.0117 -118.4512 85° East 230 265 7,700 -660 Descending FlightAware ADS-B (KMOD)
02:11PM 34.0133 -118.4368 96° East 278 320 7,600 -1,080 Descending FlightAware ADS-B (OPMT / MUX)
02:11PM 34.0140 -118.4306 81° East 225 259 7,400 -1,680 Descending FlightAware ADS-B (OPMT / MUX)
02:11PM 34.0147 -118.4251 81° East 225 259 7,300 -1,500 Descending FlightAware ADS-B (KMOD)
02:11PM 34.0162 -118.4140 81° East 223 257 7,000 -1,800 Descending FlightAware ADS-B (OPMT / MUX)
02:11PM 34.0193 -118.3899 81° East 223 257 6,500 -2,040 Descending FlightAware ADS-B (OPMT / MUX)
02:11PM 34.0213 -118.3738 81° East 226 260 6,000 -1,800 Descending FlightAware ADS-B (OPMT / MUX)
02:12PM 34.0239 -118.3536 81° East 226 260 5,600 -1,200 Descending FlightAware ADS-B (OPMT / MUX)
02:12PM 34.0262 -118.3355 81° East 224 258 5,400 -1,140 Descending FlightAware ADS-B (OPMT / MUX)
02:12PM 34.0299 -118.3042 82° East 213 245 4,800 -1,260 Descending FlightAware ADS-B (KMOD)
02:13PM 34.0330 -118.2793 82° East 200 230 4,400 -1,320 Descending FlightAware ADS-B (KMOD)
02:13PM 34.0356 -118.2572 82° East 191 220 4,000 -1,380 Descending FlightAware ADS-B (KMOD)
02:13PM 34.0367 -118.2490 81° East 189 217 3,800 -1,320 Descending FlightAware ADS-B (OPMT / MUX)
02:14PM 34.0404 -118.2188 82° East 189 217 3,200 -1,020 Descending FlightAware ADS-B (KMOD)
02:14PM 34.0436 -118.1932 82° East 187 215 2,900 -900 Descending FlightAware ADS-B (KMOD)
02:14PM 34.0456 -118.1760 82° East 187 215 2,600 -600 Descending FlightAware ADS-B (KMOD)
02:15PM 34.0482 -118.1515 87° East 188 216 2,500 -180 Descending FlightAware ADS-B (KMOD)
02:15PM 34.0460 -118.1386 134° Southeast 189 217 2,500  Level FlightAware ADS-B (KMOD)
02:15PM 34.0282 -118.1251 171° South 191 220 2,500  Level FlightAware ADS-B (KMOD)
02:16PM 34.0119 -118.1227 174° South 191 220 2,500  Level FlightAware ADS-B (KMOD)
02:16PM 33.9938 -118.1234 207° Southwest 192 221 2,500  Level FlightAware ADS-B (KMOD)
02:16PM 33.9804 -118.1389 247° West 193 222 2,500 -180 Level FlightAware ADS-B (KMOD)
02:17PM 33.9762 -118.1618 263° West 196 226 2,400 -360 Descending FlightAware ADS-B (KMOD)
02:17PM 33.9742 -118.1822 264° West 194 223 2,300 -360 Descending FlightAware ADS-B (KMOD)
02:17PM 33.9733 -118.1917 264° West 194 223 2,200 -360 Descending FlightAware ADS-B (KMOD)
02:18PM 33.9706 -118.2193 263° West 190 219 2,100  Descending FlightAware ADS-B (KMOD)
02:18PM 33.9686 -118.2525 263° West 196 226 2,200 -300 Climbing Los Angeles Center
02:19PM 33.9617 -118.3114 262° West 188 216 1,600 -780 Descending Los Angeles Center
02:20PM 33.9569 -118.3692 264° West 162 186 700 -780 Descending Los Angeles Center
02:21PM 33.9519 -118.4156 263° West 148 170 100 -600 Descending Los Angeles Center